Time;durP1;ratioP1;P1;durP2;ratioP2;P2;SDS_P1;SDS_P2;PMS_P1;PMS_P2;Temp;Humidity;BMP_temperature;BMP_pressure;BME280_temperature;BME280_humidity;BME280_pressure;Samples;Min_cycle;Max_cycle;Signal;HPM_P1;HPM_P2
2022/12/18 00:00:47;;;;;;;15.43;10.35;;;15.40;52.60;;;;;;7402550;19;19931;-69
2022/12/18 00:03:16;;;;;;;15.20;9.68;;;15.40;52.60;;;;;;7403552;19;19954;-69
2022/12/18 00:05:50;;;;;;;13.98;8.10;;;15.40;52.60;;;;;;7405445;19;20234;-69
2022/12/18 00:08:19;;;;;;;14.15;9.68;;;15.40;52.50;;;;;;7402368;19;19923;-68
2022/12/18 00:10:51;;;;;;;13.20;8.98;;;15.40;52.60;;;;;;7401865;19;20399;-68
2022/12/18 00:13:20;;;;;;;14.75;9.63;;;15.40;52.60;;;;;;7406515;19;19940;-69
2022/12/18 00:15:49;;;;;;;13.18;8.68;;;15.40;52.60;;;;;;7403389;19;19919;-69
2022/12/18 00:18:19;;;;;;;13.60;7.88;;;15.30;52.50;;;;;;7402408;19;19926;-68
2022/12/18 00:20:48;;;;;;;15.00;10.00;;;15.30;52.60;;;;;;7402953;19;19918;-69
2022/12/18 00:23:17;;;;;;;15.23;10.13;;;15.40;52.60;;;;;;7405600;19;19932;-69
2022/12/18 00:25:46;;;;;;;16.52;10.02;;;15.40;52.50;;;;;;7401706;19;20345;-69
2022/12/18 00:28:18;;;;;;;14.38;9.52;;;15.30;52.40;;;;;;7401840;19;20005;-69
2022/12/18 00:30:51;;;;;;;14.85;10.25;;;15.40;52.40;;;;;;7402276;19;19922;-68
2022/12/18 00:33:20;;;;;;;13.50;8.85;;;15.40;52.50;;;;;;7402417;19;20429;-69
2022/12/18 00:35:49;;;;;;;16.17;9.98;;;15.40;52.50;;;;;;7402200;19;20390;-69
2022/12/18 00:38:18;;;;;;;16.17;9.20;;;15.40;52.40;;;;;;7403650;19;19933;-69
2022/12/18 00:40:47;;;;;;;16.48;9.85;;;15.40;52.40;;;;;;7406185;19;19926;-68
2022/12/18 00:43:16;;;;;;;15.13;8.38;;;15.40;52.40;;;;;;7402214;19;19911;-69
2022/12/18 00:45:45;;;;;;;13.07;8.65;;;15.40;52.40;;;;;;7400365;19;19919;-69
2022/12/18 00:48:14;;;;;;;14.40;10.35;;;15.40;52.40;;;;;;7401057;19;19914;-69
2022/12/18 00:50:43;;;;;;;14.38;8.75;;;15.40;52.40;;;;;;7401836;19;19944;-69
2022/12/18 00:53:13;;;;;;;15.73;9.30;;;15.40;52.40;;;;;;7403523;19;19982;-68
2022/12/18 00:55:43;;;;;;;14.85;8.20;;;15.40;52.40;;;;;;7404246;19;19914;-68
2022/12/18 00:58:12;;;;;;;15.32;8.85;;;15.40;52.40;;;;;;7401509;19;19986;-69
2022/12/18 01:00:46;;;;;;;16.50;10.27;;;15.40;52.40;;;;;;7400297;19;19922;-69
2022/12/18 01:03:16;;;;;;;14.05;9.20;;;15.40;52.40;;;;;;7401143;19;19929;-69
2022/12/18 01:05:45;;;;;;;16.10;10.00;;;15.40;52.40;;;;;;7401529;19;19921;-69
2022/12/18 01:08:14;;;;;;;13.98;9.52;;;15.40;52.40;;;;;;7400723;19;19915;-69
2022/12/18 01:10:44;;;;;;;15.27;8.55;;;15.40;52.30;;;;;;7402837;19;19929;-68
2022/12/18 01:13:13;;;;;;;14.52;9.88;;;15.40;52.30;;;;;;7403382;19;19936;-68
2022/12/18 01:15:50;;;;;;;16.17;9.90;;;15.40;52.30;;;;;;7401218;19;19919;-68
2022/12/18 01:18:20;;;;;;;16.42;10.30;;;15.40;52.30;;;;;;7400708;19;19921;-68
2022/12/18 01:20:49;;;;;;;16.85;10.07;;;15.40;52.30;;;;;;7400869;19;19922;-68
2022/12/18 01:23:18;;;;;;;15.60;10.07;;;15.40;52.20;;;;;;7404795;19;19918;-69
2022/12/18 01:25:47;;;;;;;14.60;8.20;;;15.40;52.20;;;;;;7404914;19;19994;-68
2022/12/18 01:28:16;;;;;;;14.52;9.50;;;15.40;52.20;;;;;;7400408;19;19914;-68
2022/12/18 01:30:48;;;;;;;16.10;9.85;;;15.40;52.30;;;;;;7404970;19;19907;-68
2022/12/18 01:33:17;;;;;;;16.23;9.73;;;15.40;52.20;;;;;;7399974;19;19931;-69
2022/12/18 01:35:46;;;;;;;15.50;9.93;;;15.40;52.30;;;;;;7403075;19;19915;-69
2022/12/18 01:38:15;;;;;;;14.65;10.15;;;15.40;52.20;;;;;;7407321;19;19915;-69
2022/12/18 01:40:44;;;;;;;15.77;9.65;;;15.40;52.90;;;;;;7410372;19;19932;-69
2022/12/18 01:43:17;;;;;;;16.30;9.85;;;15.40;52.30;;;;;;7408181;19;19994;-68
2022/12/18 01:45:49;;;;;;;16.92;12.75;;;15.40;52.20;;;;;;7406925;19;19926;-69
2022/12/18 01:48:37;;;;;;;15.32;9.80;;;15.40;52.20;;;;;;7406088;19;19954;-68
2022/12/18 01:51:08;;;;;;;15.27;10.23;;;15.40;52.20;;;;;;7407313;19;19915;-68
2022/12/18 01:53:39;;;;;;;15.43;8.40;;;15.40;52.20;;;;;;7407094;19;19918;-68
2022/12/18 01:56:09;;;;;;;15.10;9.50;;;15.40;52.20;;;;;;7411313;19;19926;-68
2022/12/18 01:58:44;;;;;;;16.02;9.93;;;15.40;52.30;;;;;;7407176;19;19914;-69
2022/12/18 02:01:15;;;;;;;13.85;8.85;;;15.40;52.10;;;;;;7405370;19;19933;-67
2022/12/18 02:03:45;;;;;;;14.45;9.23;;;15.40;52.20;;;;;;7408616;19;19920;-69
2022/12/18 02:06:19;;;;;;;15.18;8.57;;;15.40;52.20;;;;;;7406236;19;19914;-69
2022/12/18 02:09:01;;;;;;;16.58;10.13;;;15.40;52.20;;;;;;7405477;19;19915;-69
2022/12/18 02:11:42;;;;;;;16.40;9.32;;;15.40;52.20;;;;;;7406326;19;19982;-69
2022/12/18 02:14:20;;;;;;;14.85;9.57;;;15.40;52.20;;;;;;7406480;19;19911;-68
2022/12/18 02:16:56;;;;;;;15.07;9.18;;;15.40;52.20;;;;;;7406178;19;19921;-69
2022/12/18 02:19:53;;;;;;;13.88;9.18;;;15.40;52.90;;;;;;7405290;19;19926;-69
2022/12/18 02:22:36;;;;;;;15.82;9.15;;;15.40;52.20;;;;;;7408019;19;19976;-68
2022/12/18 02:25:22;;;;;;;13.45;7.85;;;15.40;52.20;;;;;;7409250;19;20330;-68
2022/12/18 02:27:56;;;;;;;16.08;9.35;;;15.40;52.20;;;;;;7405590;19;19914;-68
2022/12/18 02:30:26;;;;;;;14.95;9.13;;;15.40;52.20;;;;;;7405786;19;19914;-69
2022/12/18 02:32:58;;;;;;;15.23;10.20;;;15.40;52.20;;;;;;7405635;19;19931;-68
2022/12/18 02:35:31;;;;;;;14.70;8.18;;;15.40;52.20;;;;;;7405697;19;19926;-69
2022/12/18 02:38:01;;;;;;;14.98;9.13;;;15.40;52.20;;;;;;7408597;19;19918;-69
2022/12/18 02:40:30;;;;;;;15.30;9.02;;;15.40;52.20;;;;;;7406142;19;20385;-68
2022/12/18 02:43:10;;;;;;;16.13;9.85;;;15.40;52.20;;;;;;7405985;19;19907;-69
2022/12/18 02:45:48;;;;;;;14.30;9.43;;;15.40;52.20;;;;;;7405455;19;19918;-68
2022/12/18 02:48:19;;;;;;;15.45;8.77;;;15.40;52.20;;;;;;7402210;19;19970;-68
2022/12/18 02:50:55;;;;;;;15.68;9.77;;;15.40;52.20;;;;;;7405105;19;19914;-68
2022/12/18 02:53:30;;;;;;;15.57;10.38;;;15.40;52.30;;;;;;7405978;19;19948;-69
2022/12/18 02:56:08;;;;;;;14.93;8.63;;;15.40;52.90;;;;;;7410147;19;19918;-68
2022/12/18 02:58:46;;;;;;;16.63;9.93;;;15.40;52.20;;;;;;7409151;19;19932;-68
2022/12/18 03:01:22;;;;;;;14.43;9.20;;;15.40;52.10;;;;;;7403926;19;19929;-68
2022/12/18 03:03:55;;;;;;;14.20;9.23;;;15.40;52.10;;;;;;7404513;19;19919;-69
2022/12/18 03:06:29;;;;;;;15.48;9.65;;;15.40;52.10;;;;;;7405294;19;19935;-69
2022/12/18 03:09:02;;;;;;;15.25;9.95;;;15.40;52.10;;;;;;7407756;19;19982;-69
2022/12/18 03:14:22;;;;;;;15.00;9.63;;;15.40;52.20;;;;;;7404842;19;19925;-68
2022/12/18 03:16:55;;;;;;;14.57;9.73;;;15.40;52.10;;;;;;7404760;19;19915;-68
2022/12/18 03:19:28;;;;;;;14.48;9.57;;;15.40;52.20;;;;;;7404035;19;19925;-69
2022/12/18 03:22:00;;;;;;;15.27;9.02;;;15.40;52.20;;;;;;7405485;19;19926;-68
2022/12/18 03:24:32;;;;;;;13.98;7.60;;;15.40;52.10;;;;;;7407023;19;19926;-69
2022/12/18 03:27:05;;;;;;;14.45;8.98;;;15.40;52.10;;;;;;7408596;19;19971;-68
2022/12/18 03:29:40;;;;;;;15.55;9.30;;;15.40;52.20;;;;;;7406386;19;19935;-68
2022/12/18 03:32:13;;;;;;;12.32;8.63;;;15.40;52.20;;;;;;7404324;19;19929;-69
2022/12/18 03:34:44;;;;;;;14.20;9.73;;;15.40;52.20;;;;;;7404426;19;19919;-68
2022/12/18 03:37:14;;;;;;;16.40;7.93;;;15.40;52.20;;;;;;7404159;19;19922;-68
2022/12/18 03:39:43;;;;;;;14.77;9.20;;;15.40;52.20;;;;;;7407225;19;20521;-68
2022/12/18 03:42:18;;;;;;;14.35;9.25;;;15.40;52.20;;;;;;7404933;19;19926;-69
2022/12/18 03:45:00;;;;;;;13.68;7.38;;;15.40;52.10;;;;;;7404152;19;20291;-68
2022/12/18 03:47:31;;;;;;;13.45;8.50;;;15.40;52.10;;;;;;7404436;19;19915;-68
2022/12/18 03:50:08;;;;;;;13.57;8.77;;;15.40;52.10;;;;;;7403038;19;19918;-68
2022/12/18 03:52:42;;;;;;;13.35;7.30;;;15.40;52.20;;;;;;7407637;19;20249;-68
2022/12/18 03:55:13;;;;;;;14.50;7.82;;;15.40;52.10;;;;;;7403971;19;20272;-68
2022/12/18 03:57:43;;;;;;;15.02;7.50;;;15.40;52.20;;;;;;7405747;19;19950;-68
2022/12/18 04:00:18;;;;;;;13.13;8.45;;;15.40;52.30;;;;;;7401679;19;19911;-68
2022/12/18 04:02:50;;;;;;;13.73;9.02;;;15.40;52.20;;;;;;7405402;19;19994;-67
2022/12/18 04:05:21;;;;;;;14.10;8.95;;;15.40;52.10;;;;;;7403162;19;19957;-68
2022/12/18 04:07:53;;;;;;;13.45;7.95;;;15.40;52.20;;;;;;7407746;19;20279;-68
2022/12/18 04:10:22;;;;;;;15.18;9.20;;;15.40;52.20;;;;;;7401620;19;19922;-68
2022/12/18 04:12:52;;;;;;;14.20;7.35;;;15.40;52.20;;;;;;7403407;19;20269;-68
2022/12/18 04:15:24;;;;;;;13.77;7.18;;;15.40;52.20;;;;;;7402889;19;19918;-68
2022/12/18 04:17:53;;;;;;;13.95;8.95;;;15.40;52.20;;;;;;7402696;19;19914;-68
2022/12/18 04:20:22;;;;;;;13.27;7.93;;;15.40;52.10;;;;;;7405131;19;19949;-68
2022/12/18 04:22:51;;;;;;;;;;;15.40;52.80;;;;;;7407626;19;19918;-68
2022/12/18 04:25:21;;;;;;;13.32;8.80;;;15.40;52.00;;;;;;7407108;19;19923;-68
2022/12/18 04:27:50;;;;;;;13.70;8.40;;;15.40;52.20;;;;;;7405192;19;19923;-68
2022/12/18 04:30:19;;;;;;;12.95;8.43;;;15.40;52.10;;;;;;7400718;19;19950;-68
2022/12/18 04:32:50;;;;;;;13.80;8.13;;;15.40;52.10;;;;;;7401665;19;20262;-68
2022/12/18 04:35:19;;;;;;;12.38;8.15;;;15.40;52.80;;;;;;7402452;19;19915;-68
2022/12/18 04:37:49;;;;;;;12.82;8.07;;;15.40;52.10;;;;;;7406675;19;19915;-68
2022/12/18 04:40:18;;;;;;;12.27;8.30;;;15.40;52.20;;;;;;7402306;19;19910;-68
2022/12/18 04:42:47;;;;;;;13.57;8.82;;;15.40;52.20;;;;;;7402515;19;19945;-68
2022/12/18 04:45:16;;;;;;;13.02;8.65;;;15.40;52.10;;;;;;7401833;19;19926;-68
2022/12/18 04:47:45;;;;;;;13.75;8.15;;;15.40;52.10;;;;;;7402378;19;19914;-68
2022/12/18 04:50:16;;;;;;;11.95;7.18;;;15.40;52.10;;;;;;7400529;19;20269;-68
2022/12/18 04:52:48;;;;;;;12.95;8.07;;;15.40;52.10;;;;;;7402062;19;19919;-68
2022/12/18 04:55:17;;;;;;;11.82;6.45;;;15.40;52.10;;;;;;7402140;19;19921;-68
2022/12/18 04:57:45;;;;;;;13.52;9.18;;;15.40;52.20;;;;;;7401704;19;19917;-67
2022/12/18 05:00:15;;;;;;;;;;;15.40;52.20;;;;;;7403512;19;19918;-67
2022/12/18 05:02:44;;;;;;;12.50;7.70;;;15.40;52.70;;;;;;7401046;19;20338;-67
2022/12/18 05:05:22;;;;;;;12.95;6.88;;;15.40;52.20;;;;;;7401743;19;20310;-68
2022/12/18 05:07:51;;;;;;;14.32;9.05;;;15.40;52.20;;;;;;7405043;19;19919;-68
2022/12/18 05:10:20;;;;;;;12.95;8.55;;;15.40;52.20;;;;;;7401816;19;19922;-68
2022/12/18 05:13:01;;;;;;;11.52;6.47;;;15.40;52.20;;;;;;7408466;19;19914;-68
2022/12/18 05:15:32;;;;;;;14.90;8.65;;;15.40;52.10;;;;;;7408417;19;20646;-67
2022/12/18 05:18:01;;;;;;;;;;;15.40;52.20;;;;;;7410328;19;20357;-68
2022/12/18 05:20:33;;;;;;;12.82;7.78;;;15.40;52.20;;;;;;7405025;19;19929;-68
2022/12/18 05:23:07;;;;;;;11.27;7.85;;;15.40;52.20;;;;;;7412016;19;19926;-68
2022/12/18 05:25:36;;;;;;;14.07;9.15;;;15.40;52.10;;;;;;7412667;19;19923;-68
2022/12/18 05:28:05;;;;;;;14.00;8.65;;;15.40;52.80;;;;;;7410409;19;19943;-68
2022/12/18 05:30:45;;;;;;;12.00;6.88;;;15.40;52.10;;;;;;7405248;19;20318;-68
2022/12/18 05:33:13;;;;;;;10.73;6.32;;;15.40;52.20;;;;;;7406823;19;19915;-68
2022/12/18 05:35:45;;;;;;;12.48;8.48;;;15.40;52.10;;;;;;7408622;19;20388;-67
2022/12/18 05:38:14;;;;;;;12.48;9.05;;;15.40;52.10;;;;;;7407084;19;19918;-69
2022/12/18 05:40:45;;;;;;;11.30;6.30;;;15.40;52.10;;;;;;7407549;19;20651;-68
2022/12/18 05:43:14;;;;;;;13.20;8.07;;;15.40;52.10;;;;;;7407369;19;19911;-68
2022/12/18 05:45:43;;;;;;;11.20;6.05;;;15.40;52.00;;;;;;7411300;19;20009;-67
2022/12/18 05:48:15;;;;;;;13.02;6.75;;;15.40;52.10;;;;;;7407232;19;20353;-68
2022/12/18 05:50:49;;;;;;;12.40;7.93;;;15.40;52.10;;;;;;7404395;19;19914;-68
2022/12/18 05:53:20;;;;;;;13.02;8.13;;;15.40;52.10;;;;;;7407512;19;19939;-68
2022/12/18 05:55:50;;;;;;;12.00;7.75;;;15.40;52.10;;;;;;7406831;19;19915;-68
2022/12/18 05:58:19;;;;;;;;;;;15.40;52.10;;;;;;7411906;19;19918;-68
2022/12/18 06:00:48;;;;;;;12.90;7.82;;;15.40;52.10;;;;;;7405434;19;19918;-68
2022/12/18 06:03:17;;;;;;;11.35;7.40;;;15.40;52.20;;;;;;7406251;19;20001;-67
2022/12/18 06:05:49;;;;;;;12.32;7.47;;;15.40;52.10;;;;;;7408637;19;19929;-68
2022/12/18 06:08:18;;;;;;;11.10;6.43;;;15.40;52.10;;;;;;7406257;19;19922;-68
2022/12/18 06:10:54;;;;;;;11.18;7.30;;;15.40;52.10;;;;;;7405298;19;20344;-68
2022/12/18 06:13:24;;;;;;;11.48;7.68;;;15.40;52.10;;;;;;7406159;19;19923;-67
2022/12/18 06:15:52;;;;;;;13.05;7.70;;;15.40;52.10;;;;;;7406332;19;19918;-67
2022/12/18 06:18:21;;;;;;;12.90;7.60;;;15.40;52.00;;;;;;7407938;19;19923;-68
2022/12/18 06:21:00;;;;;;;10.23;5.88;;;15.40;52.00;;;;;;7405811;19;20296;-68
2022/12/18 06:23:31;;;;;;;11.95;7.78;;;15.40;52.00;;;;;;7406329;19;19925;-67
2022/12/18 06:26:05;;;;;;;10.90;6.22;;;15.40;52.10;;;;;;7406287;19;19915;-68
2022/12/18 06:28:34;;;;;;;12.18;7.63;;;15.40;52.00;;;;;;7409855;19;19917;-68
2022/12/18 06:31:14;;;;;;;11.00;7.50;;;15.40;52.00;;;;;;7403534;19;19910;-68
2022/12/18 06:33:43;;;;;;;12.10;7.15;;;15.40;52.10;;;;;;7405319;19;19964;-68
2022/12/18 06:36:16;;;;;;;11.15;8.07;;;15.40;52.00;;;;;;7408914;19;19940;-68
2022/12/18 06:38:46;;;;;;;10.90;7.25;;;15.40;52.00;;;;;;7406016;19;20014;-68
2022/12/18 06:41:17;;;;;;;10.15;7.18;;;15.40;52.10;;;;;;7406205;19;19964;-68
2022/12/18 06:43:46;;;;;;;12.40;7.70;;;15.40;52.10;;;;;;7404878;19;19974;-68
2022/12/18 06:46:15;;;;;;;10.90;7.55;;;15.40;52.10;;;;;;7405705;19;19978;-68
2022/12/18 06:48:44;;;;;;;13.25;7.93;;;15.40;52.10;;;;;;7406031;19;19931;-68
2022/12/18 06:51:19;;;;;;;11.80;7.63;;;15.40;52.00;;;;;;7403605;19;19926;-68
2022/12/18 06:53:48;;;;;;;11.13;7.43;;;15.40;52.00;;;;;;7410147;19;19914;-68
2022/12/18 06:56:17;;;;;;;11.00;7.28;;;15.40;52.00;;;;;;7405305;19;19945;-68
2022/12/18 06:58:46;;;;;;;10.75;6.53;;;15.40;52.10;;;;;;7408972;19;20013;-68
2022/12/18 07:01:15;;;;;;;12.02;7.07;;;15.40;52.00;;;;;;7403415;19;19914;-68
2022/12/18 07:03:45;;;;;;;10.77;7.28;;;15.40;52.00;;;;;;7405749;19;19922;-67
2022/12/18 07:06:22;;;;;;;12.98;7.03;;;15.40;52.00;;;;;;7405336;19;20334;-68
2022/12/18 07:08:52;;;;;;;9.75;5.55;;;15.40;52.00;;;;;;7405494;19;19915;-68
2022/12/18 07:11:22;;;;;;;11.30;7.65;;;15.40;52.00;;;;;;7401328;19;19935;-68
2022/12/18 07:13:51;;;;;;;10.63;6.53;;;15.40;52.00;;;;;;7404451;19;20354;-68
2022/12/18 07:16:21;;;;;;;9.65;6.43;;;15.40;52.70;;;;;;7405380;19;19918;-69
2022/12/18 07:18:50;;;;;;;11.38;7.25;;;15.40;52.00;;;;;;7404443;19;19978;-68
2022/12/18 07:21:27;;;;;;;10.65;6.88;;;15.40;52.00;;;;;;7404504;19;19914;-68
2022/12/18 07:23:59;;;;;;;10.05;6.18;;;15.40;52.00;;;;;;7404735;19;19926;-68
2022/12/18 07:26:28;;;;;;;11.93;7.65;;;15.40;52.10;;;;;;7406486;19;19917;-68
2022/12/18 07:28:58;;;;;;;10.90;6.75;;;15.40;52.10;;;;;;7404738;19;19942;-68
2022/12/18 07:31:29;;;;;;;11.52;6.85;;;15.40;51.90;;;;;;7403445;19;19915;-68
2022/12/18 07:33:58;;;;;;;9.95;5.78;;;15.40;52.00;;;;;;7402771;19;20354;-68
2022/12/18 07:36:29;;;;;;;10.50;6.43;;;15.40;51.90;;;;;;7408152;19;19919;-67
2022/12/18 07:39:03;;;;;;;8.93;5.68;;;15.40;51.80;;;;;;7404104;19;19918;-68
2022/12/18 07:41:32;;;;;;;10.25;5.10;;;15.40;51.90;;;;;;7404263;19;19926;-68
2022/12/18 07:44:01;;;;;;;10.60;6.55;;;15.40;51.90;;;;;;7404940;19;19915;-68
2022/12/18 07:46:30;;;;;;;10.88;7.00;;;15.40;51.80;;;;;;7403728;19;19970;-67
2022/12/18 07:48:59;;;;;;;9.13;5.38;;;15.40;51.90;;;;;;7403993;19;20333;-68
2022/12/18 07:51:30;;;;;;;12.07;6.07;;;15.40;51.80;;;;;;7402717;19;19927;-68
2022/12/18 07:53:59;;;;;;;9.57;5.30;;;15.40;51.80;;;;;;7404088;19;19922;-68
2022/12/18 07:56:28;;;;;;;9.63;6.60;;;15.40;51.90;;;;;;7403792;19;19917;-68
2022/12/18 07:58:57;;;;;;;11.05;6.88;;;15.40;51.90;;;;;;7407792;19;20025;-68
2022/12/18 08:01:26;;;;;;;10.45;6.55;;;15.40;51.90;;;;;;7405698;19;19911;-68
2022/12/18 08:03:55;;;;;;;10.55;5.68;;;15.40;51.80;;;;;;7403863;19;20349;-68
2022/12/18 08:06:24;;;;;;;9.68;5.55;;;15.40;51.80;;;;;;7403399;19;19911;-68
2022/12/18 08:08:57;;;;;;;9.73;6.57;;;15.50;51.90;;;;;;7403326;19;19925;-68
2022/12/18 08:11:28;;;;;;;10.57;7.15;;;15.40;51.80;;;;;;7401441;19;20354;-68
2022/12/18 08:13:58;;;;;;;10.82;7.13;;;15.50;51.80;;;;;;7402819;19;19924;-68
2022/12/18 08:16:30;;;;;;;9.45;6.18;;;15.50;51.90;;;;;;7403073;19;19936;-68
2022/12/18 08:19:00;;;;;;;11.13;6.38;;;15.50;51.80;;;;;;7407152;19;19922;-68
2022/12/18 08:21:31;;;;;;;9.80;6.50;;;15.40;51.70;;;;;;7401427;19;19922;-68
2022/12/18 08:24:04;;;;;;;9.57;7.05;;;15.40;52.40;;;;;;7402843;19;20350;-67
2022/12/18 08:26:34;;;;;;;10.05;6.50;;;15.50;51.70;;;;;;7402844;19;19918;-68
2022/12/18 08:29:03;;;;;;;;;;;15.50;51.80;;;;;;7406957;19;19922;-68
2022/12/18 08:31:48;;;;;;;9.77;6.15;;;15.50;51.60;;;;;;7400621;19;19921;-67
2022/12/18 08:34:17;;;;;;;9.90;6.35;;;15.40;51.80;;;;;;7403962;19;20330;-68
2022/12/18 08:36:46;;;;;;;8.63;6.55;;;15.40;51.80;;;;;;7405959;19;19919;-68
2022/12/18 08:39:23;;;;;;;9.77;6.45;;;15.50;51.80;;;;;;7402760;19;19921;-67
2022/12/18 08:44:41;;;;;;;8.05;5.88;;;15.50;51.80;;;;;;7401998;19;19915;-68
2022/12/18 08:47:10;;;;;;;10.00;6.55;;;15.50;51.80;;;;;;7408162;19;19915;-68
2022/12/18 08:49:40;;;;;;;9.32;4.85;;;15.50;51.80;;;;;;7408554;19;20300;-68
2022/12/18 08:52:09;;;;;;;9.32;6.13;;;15.50;51.80;;;;;;7408814;19;19921;-68
2022/12/18 08:54:42;;;;;;;8.73;5.57;;;15.50;52.50;;;;;;7408528;19;19918;-68
2022/12/18 08:57:11;;;;;;;9.45;5.90;;;15.50;51.80;;;;;;7408202;19;19918;-68
2022/12/18 08:59:40;;;;;;;9.27;6.43;;;15.50;51.80;;;;;;7410936;19;19932;-68
2022/12/18 09:02:10;;;;;;;8.93;5.85;;;15.50;51.80;;;;;;7408511;19;19911;-68
2022/12/18 09:04:39;;;;;;;9.13;6.22;;;15.50;51.80;;;;;;7408774;19;19974;-68
2022/12/18 09:07:08;;;;;;;8.82;5.90;;;15.50;51.80;;;;;;7408210;19;19915;-68
2022/12/18 09:09:38;;;;;;;9.05;6.30;;;15.50;51.70;;;;;;7412123;19;19919;-68
2022/12/18 09:12:10;;;;;;;8.25;5.45;;;15.50;51.70;;;;;;7405146;19;20344;-68
2022/12/18 09:14:39;;;;;;;8.30;6.13;;;15.50;52.50;;;;;;7408442;19;19940;-67
2022/12/18 09:17:08;;;;;;;9.38;6.35;;;15.50;51.80;;;;;;7407918;19;19915;-68
2022/12/18 09:19:37;;;;;;;9.68;4.70;;;15.50;51.70;;;;;;7406459;19;20355;-67
2022/12/18 09:22:06;;;;;;;8.75;5.38;;;15.50;51.80;;;;;;7407799;19;19917;-68
2022/12/18 09:24:39;;;;;;;8.10;5.10;;;15.50;51.80;;;;;;7408025;19;20701;-68
2022/12/18 09:27:10;;;;;;;9.32;6.47;;;15.50;51.80;;;;;;7407760;19;19918;-68
2022/12/18 09:29:39;;;;;;;8.50;4.70;;;15.50;51.90;;;;;;7408825;19;20257;-68
2022/12/18 09:32:08;;;;;;;7.97;5.68;;;15.50;51.80;;;;;;7405293;19;19986;-68
2022/12/18 09:34:39;;;;;;;8.57;5.90;;;15.50;51.90;;;;;;7409650;19;20693;-68
2022/12/18 09:37:08;;;;;;;8.52;4.75;;;15.50;51.90;;;;;;7411048;19;20293;-68
2022/12/18 09:39:37;;;;;;;8.52;6.15;;;15.60;51.90;;;;;;7407411;19;20360;-68
2022/12/18 09:42:07;;;;;;;7.25;3.90;;;15.50;51.80;;;;;;7408252;19;19911;-68
2022/12/18 09:44:43;;;;;;;7.22;5.00;;;15.60;51.90;;;;;;7407769;19;19917;-68
2022/12/18 09:47:16;;;;;;;9.45;6.15;;;15.50;51.90;;;;;;7407062;19;19922;-68
2022/12/18 09:49:47;;;;;;;8.43;5.78;;;15.50;51.80;;;;;;7407026;19;19914;-68
2022/12/18 09:52:22;;;;;;;8.32;5.45;;;15.50;51.90;;;;;;7404854;19;20308;-68
2022/12/18 09:54:56;;;;;;;8.55;5.80;;;15.60;52.00;;;;;;7406920;19;19954;-67
2022/12/18 09:57:27;;;;;;;8.50;4.43;;;15.50;51.90;;;;;;7406335;19;20253;-68
2022/12/18 10:00:06;;;;;;;7.38;5.65;;;15.60;52.00;;;;;;7408124;19;19932;-68
2022/12/18 10:02:35;;;;;;;8.02;4.47;;;15.60;52.00;;;;;;7410479;19;20358;-68
2022/12/18 10:05:14;;;;;;;8.65;5.78;;;15.50;52.00;;;;;;7406423;19;19935;-68
2022/12/18 10:07:55;;;;;;;8.65;5.47;;;15.60;52.00;;;;;;7406477;19;19951;-69
2022/12/18 10:10:31;;;;;;;7.88;5.38;;;15.60;52.00;;;;;;7406710;19;20338;-68
2022/12/18 10:13:12;;;;;;;7.07;4.65;;;15.60;52.00;;;;;;7406479;19;19911;-68
2022/12/18 10:15:54;;;;;;;8.23;4.50;;;15.50;52.00;;;;;;7406994;19;20242;-68
2022/12/18 10:18:37;;;;;;;9.45;5.65;;;15.60;52.10;;;;;;7405527;19;19919;-67
2022/12/18 10:21:13;;;;;;;9.07;5.78;;;15.60;52.10;;;;;;7406886;19;20370;-68
2022/12/18 10:23:44;;;;;;;;;;;15.60;52.10;;;;;;7409133;19;19914;-68
2022/12/18 10:26:14;;;;;;;6.72;3.78;;;15.60;52.20;;;;;;7406361;19;19923;-68
2022/12/18 10:28:44;;;;;;;8.35;4.35;;;15.60;52.30;;;;;;7406402;19;19954;-68
2022/12/18 10:31:22;;;;;;;6.78;4.05;;;15.60;52.10;;;;;;7409400;19;19928;-68
2022/12/18 10:33:52;;;;;;;7.65;4.53;;;15.60;52.10;;;;;;7406232;19;20325;-68
2022/12/18 10:36:20;;;;;;;8.32;5.85;;;15.60;52.10;;;;;;7408457;19;19911;-68
2022/12/18 10:38:52;;;;;;;7.28;4.10;;;15.60;52.10;;;;;;7406156;19;20218;-68
2022/12/18 10:41:30;;;;;;;7.80;4.97;;;15.60;52.10;;;;;;7405427;19;19911;-68
2022/12/18 10:44:18;;;;;;;8.27;5.38;;;15.60;52.10;;;;;;7405876;19;19919;-68
2022/12/18 10:46:52;;;;;;;7.47;4.03;;;15.60;52.10;;;;;;7406223;19;19918;-68
2022/12/18 10:49:30;;;;;;;8.13;5.00;;;15.60;52.10;;;;;;7405670;19;19919;-68
2022/12/18 10:52:15;;;;;;;7.30;5.25;;;15.60;52.10;;;;;;7409242;19;19914;-68
2022/12/18 10:54:51;;;;;;;8.15;5.30;;;15.70;52.80;;;;;;7405573;19;19990;-68
2022/12/18 10:57:37;;;;;;;7.43;4.93;;;15.70;52.10;;;;;;7405018;19;19925;-68
2022/12/18 11:00:26;;;;;;;6.63;3.63;;;15.60;52.00;;;;;;7405609;19;20254;-68
2022/12/18 11:02:58;;;;;;;6.78;4.68;;;15.60;52.00;;;;;;7405076;19;19914;-68
2022/12/18 11:05:31;;;;;;;7.63;4.90;;;15.70;52.10;;;;;;7405196;19;19922;-68
2022/12/18 11:08:01;;;;;;;7.18;4.85;;;15.60;52.10;;;;;;7406158;19;19970;-68
2022/12/18 11:10:34;;;;;;;7.85;5.15;;;15.60;52.10;;;;;;7404499;19;19919;-68
2022/12/18 11:13:15;;;;;;;7.43;5.05;;;15.60;52.10;;;;;;7403014;19;19911;-69
2022/12/18 11:15:44;;;;;;;6.93;3.88;;;15.60;52.20;;;;;;7405419;19;19949;-68
2022/12/18 11:18:26;;;;;;;7.00;4.88;;;15.60;52.20;;;;;;7404838;19;19914;-68
2022/12/18 11:20:57;;;;;;;;;;;15.60;52.20;;;;;;7406799;19;19917;-68
2022/12/18 11:23:26;;;;;;;6.95;4.18;;;15.60;52.10;;;;;;7404935;19;19931;-67
2022/12/18 11:25:58;;;;;;;7.72;4.90;;;15.60;52.30;;;;;;7409182;19;19914;-68
2022/12/18 11:28:31;;;;;;;6.05;4.30;;;15.60;52.20;;;;;;7404800;19;19918;-68
2022/12/18 11:31:23;;;;;;;7.10;4.72;;;15.60;52.30;;;;;;7406956;19;19924;-68
2022/12/18 11:34:13;;;;;;;7.25;3.78;;;15.60;52.20;;;;;;7404311;19;19914;-68
2022/12/18 11:36:45;;;;;;;6.95;5.00;;;15.60;53.00;;;;;;7406788;19;19911;-66
2022/12/18 11:39:21;;;;;;;7.40;5.53;;;15.60;52.30;;;;;;7404509;19;20353;-68
2022/12/18 11:44:45;;;;;;;6.43;4.57;;;15.60;52.30;;;;;;7404460;19;19926;-68
2022/12/18 11:47:21;;;;;;;8.10;4.60;;;15.60;52.40;;;;;;7404100;19;19919;-68
2022/12/18 11:49:54;;;;;;;6.30;4.60;;;15.60;52.40;;;;;;7403799;19;19929;-68
2022/12/18 11:52:27;;;;;;;7.03;5.07;;;15.60;52.40;;;;;;7402789;19;19911;-68
2022/12/18 11:55:01;;;;;;;6.78;4.45;;;15.60;52.40;;;;;;7404015;19;19927;-68
2022/12/18 11:57:40;;;;;;;6.00;3.97;;;15.60;52.50;;;;;;7403781;19;19970;-69
2022/12/18 12:00:20;;;;;;;8.13;5.10;;;15.60;52.40;;;;;;7406327;19;19923;-68
2022/12/18 12:03:17;;;;;;;6.53;4.65;;;15.60;52.40;;;;;;7402556;19;19978;-67
2022/12/18 12:06:03;;;;;;;6.68;3.70;;;15.60;52.40;;;;;;7402989;19;20325;-68
2022/12/18 12:08:49;;;;;;;6.72;4.43;;;15.60;52.50;;;;;;7403805;19;19915;-68
2022/12/18 12:11:25;;;;;;;7.30;4.32;;;15.60;52.50;;;;;;7403064;19;20338;-68
2022/12/18 12:13:57;;;;;;;;;;;15.60;52.40;;;;;;7405634;19;20358;-68
2022/12/18 12:16:30;;;;;;;7.13;4.18;;;15.60;52.40;;;;;;7407172;19;19926;-68
2022/12/18 12:19:18;;;;;;;6.38;4.60;;;15.50;52.50;;;;;;7401971;19;19927;-68
2022/12/18 12:21:55;;;;;;;7.15;4.43;;;15.60;52.50;;;;;;7403619;19;19915;-68
2022/12/18 12:24:37;;;;;;;5.97;4.78;;;15.50;52.50;;;;;;7403054;19;19919;-68
2022/12/18 12:27:16;;;;;;;7.90;4.80;;;15.50;52.50;;;;;;7403390;19;19922;-68
2022/12/18 12:29:57;;;;;;;4.93;3.47;;;15.50;52.40;;;;;;7404615;19;19915;-69
2022/12/18 12:33:04;;;;;;;6.25;3.95;;;15.50;52.50;;;;;;7402418;19;19926;-68
2022/12/18 12:35:46;;;;;;;6.40;4.13;;;15.50;52.40;;;;;;7402965;19;19947;-68
2022/12/18 12:38:22;;;;;;;6.88;4.60;;;15.50;52.50;;;;;;7402762;19;19918;-68
2022/12/18 12:40:54;;;;;;;6.38;4.10;;;15.50;52.50;;;;;;7402106;19;19922;-68
2022/12/18 12:43:27;;;;;;;6.82;4.13;;;15.50;52.50;;;;;;7402427;19;19915;-68
2022/12/18 12:46:00;;;;;;;6.88;4.20;;;15.60;53.20;;;;;;7402495;19;19918;-68
2022/12/18 12:48:49;;;;;;;6.25;4.30;;;15.50;52.50;;;;;;7402269;19;19924;-69
2022/12/18 12:51:22;;;;;;;7.03;5.43;;;15.50;52.50;;;;;;7402104;19;19944;-68
2022/12/18 12:53:57;;;;;;;6.28;4.15;;;15.50;52.50;;;;;;7402423;19;19921;-69
2022/12/18 12:56:31;;;;;;;6.95;4.18;;;15.50;52.50;;;;;;7402154;19;20329;-68
2022/12/18 12:59:07;;;;;;;6.05;2.88;;;15.50;52.50;;;;;;7405735;19;19925;-68
2022/12/18 13:01:43;;;;;;;6.18;4.57;;;15.50;52.50;;;;;;7402485;19;19931;-68
2022/12/18 13:04:24;;;;;;;5.50;4.00;;;15.50;52.50;;;;;;7401591;19;19918;-69
2022/12/18 13:06:58;;;;;;;6.47;3.72;;;15.50;52.50;;;;;;7403989;19;19915;-68
2022/12/18 13:09:32;;;;;;;6.50;4.18;;;15.50;52.50;;;;;;7402012;19;19994;-69
2022/12/18 13:14:47;;;;;;;5.78;3.65;;;15.50;52.60;;;;;;7401507;19;19910;-68
2022/12/18 13:17:34;;;;;;;6.13;3.78;;;15.50;52.50;;;;;;7401483;19;19939;-68
2022/12/18 13:20:15;;;;;;;6.80;4.18;;;15.50;52.50;;;;;;7400759;19;19994;-69
2022/12/18 13:22:56;;;;;;;6.55;4.55;;;15.50;52.50;;;;;;7401252;19;20378;-69